Time;durP1;ratioP1;P1;durP2;ratioP2;P2;SDS_P1;SDS_P2;PMS_P1;PMS_P2;Temp;Humidity;BMP_temperature;BMP_pressure;BME280_temperature;BME280_humidity;BME280_pressure;Samples;Min_cycle;Max_cycle;Signal;HPM_P1;HPM_P2
2022/03/18 00:01:22;;;;;;;23.83;5.85;;;4.30;99.90;;;;;;5050498;28;20033;-66
2022/03/18 00:03:47;;;;;;;19.73;5.43;;;4.30;99.90;;;;;;5045140;28;20049;-65
2022/03/18 00:06:16;;;;;;;15.18;4.68;;;4.30;99.90;;;;;;5052293;28;20043;-66
2022/03/18 00:08:42;;;;;;;17.98;5.32;;;4.30;99.90;;;;;;5053682;28;20044;-65
2022/03/18 00:11:08;;;;;;;20.83;6.00;;;4.30;99.90;;;;;;5047145;28;20033;-65
2022/03/18 00:13:35;;;;;;;22.23;6.57;;;4.20;99.90;;;;;;5050452;28;20064;-65
2022/03/18 00:16:01;;;;;;;18.95;5.88;;;4.20;99.90;;;;;;5053985;28;20429;-66
2022/03/18 00:18:26;;;;;;;15.23;5.50;;;4.20;99.90;;;;;;5051648;28;20063;-66
2022/03/18 00:20:53;;;;;;;21.48;7.30;;;4.30;99.90;;;;;;5054086;28;20630;-66
2022/03/18 00:23:18;;;;;;;19.50;6.68;;;4.20;99.90;;;;;;5049482;28;20112;-66
2022/03/18 00:25:44;;;;;;;23.98;7.88;;;4.20;99.90;;;;;;5053841;28;20056;-67
2022/03/18 00:28:09;;;;;;;22.33;7.78;;;4.10;99.90;;;;;;5051484;28;20805;-66
2022/03/18 00:30:35;;;;;;;29.80;9.32;;;4.10;99.90;;;;;;5050145;28;20445;-66
2022/03/18 00:33:01;;;;;;;24.23;8.82;;;4.20;99.90;;;;;;5053759;28;20045;-66
2022/03/18 00:35:26;;;;;;;23.65;9.68;;;4.00;99.90;;;;;;5029508;28;20049;-66
2022/03/18 00:37:52;;;;;;;30.17;9.70;;;4.30;99.90;;;;;;5054122;28;20387;-66
2022/03/18 00:40:17;;;;;;;26.02;8.65;;;4.40;99.90;;;;;;5052896;28;20036;-65
2022/03/18 00:42:43;;;;;;;24.23;9.32;;;4.40;99.90;;;;;;5053381;28;20082;-66
2022/03/18 00:45:09;;;;;;;23.55;8.75;;;4.40;99.90;;;;;;5047957;28;20437;-65
2022/03/18 00:53:04;;;;;;;24.42;8.63;;;4.30;99.90;;;;;;5045427;28;20072;-65
2022/03/18 00:55:30;;;;;;;27.15;9.30;;;4.30;99.90;;;;;;5036515;28;20041;-66
2022/03/18 00:57:55;;;;;;;26.65;9.27;;;4.30;99.90;;;;;;5054157;28;20071;-66
2022/03/18 01:00:21;;;;;;;29.13;9.63;;;4.20;99.90;;;;;;5047014;28;20037;-66
2022/03/18 01:02:46;;;;;;;27.27;9.20;;;4.20;99.90;;;;;;5034712;28;20044;-65
2022/03/18 01:05:12;;;;;;;30.50;8.98;;;4.20;99.90;;;;;;5036921;28;20041;-65
2022/03/18 01:07:38;;;;;;;23.80;8.93;;;4.10;99.90;;;;;;5051028;28;20036;-65
2022/03/18 01:10:04;;;;;;;18.85;7.78;;;4.10;99.90;;;;;;5052931;28;20384;-67
2022/03/18 01:12:29;;;;;;;29.48;7.88;;;4.10;99.90;;;;;;5015963;28;20049;-66
2022/03/18 01:14:55;;;;;;;28.67;8.10;;;4.10;99.90;;;;;;5031271;28;20072;-66
2022/03/18 01:17:21;;;;;;;17.90;8.35;;;4.10;99.90;;;;;;5050935;28;20045;-66
2022/03/18 01:19:47;;;;;;;20.85;6.72;;;4.10;99.90;;;;;;5032471;28;20487;-66
2022/03/18 01:22:12;;;;;;;16.25;6.72;;;4.20;99.90;;;;;;5048350;28;20129;-66
2022/03/18 01:24:38;;;;;;;22.83;6.18;;;4.20;99.90;;;;;;5051783;28;20065;-66
2022/03/18 01:27:05;;;;;;;20.98;5.90;;;4.20;99.90;;;;;;5048600;28;20410;-65
2022/03/18 01:29:30;;;;;;;27.77;7.38;;;4.20;99.90;;;;;;5047179;28;20033;-65
2022/03/18 01:31:56;;;;;;;22.90;7.05;;;4.30;99.90;;;;;;5048719;28;20129;-66
2022/03/18 01:34:22;;;;;;;23.08;7.10;;;4.30;99.90;;;;;;5046599;28;20041;-65
2022/03/18 01:36:49;;;;;;;19.85;6.47;;;4.30;99.90;;;;;;5053431;28;20086;-65
2022/03/18 01:39:14;;;;;;;27.95;7.03;;;4.30;99.90;;;;;;5052871;28;20036;-65
2022/03/18 01:41:40;;;;;;;19.17;6.90;;;4.40;99.90;;;;;;5031593;28;20120;-66
2022/03/18 01:44:10;;;;;;;21.45;7.60;;;4.40;99.90;;;;;;5029809;28;20365;-67
2022/03/18 01:46:37;;;;;;;17.95;6.82;;;4.40;99.90;;;;;;5050084;28;20071;-66
2022/03/18 01:49:04;;;;;;;19.50;6.47;;;4.40;99.90;;;;;;5051564;28;20110;-66
2022/03/18 01:51:29;;;;;;;24.33;6.78;;;4.40;99.90;;;;;;5045625;28;20446;-66
2022/03/18 01:56:40;;;;;;;18.58;6.90;;;4.40;99.90;;;;;;5053044;28;20049;-66
2022/03/18 01:59:06;;;;;;;19.50;7.32;;;4.40;99.90;;;;;;5027315;28;20043;-66
2022/03/18 02:01:32;;;;;;;16.20;5.93;;;4.40;99.90;;;;;;5048150;28;20036;-66
2022/03/18 02:03:58;;;;;;;18.48;6.75;;;4.30;99.90;;;;;;5053433;28;20049;-66
2022/03/18 02:06:23;;;;;;;20.95;6.97;;;4.30;99.90;;;;;;5046675;28;20041;-66
2022/03/18 02:08:49;;;;;;;21.02;7.20;;;4.30;99.90;;;;;;5043612;28;20045;-66
2022/03/18 02:11:15;;;;;;;18.30;6.95;;;4.30;99.90;;;;;;5052508;28;20044;-66
2022/03/18 02:13:40;;;;;;;16.90;7.03;;;4.20;99.90;;;;;;5049152;28;20527;-65
2022/03/18 02:16:06;;;;;;;20.33;7.88;;;4.20;99.90;;;;;;5044271;28;20033;-66
2022/03/18 02:18:32;;;;;;;17.48;7.68;;;4.20;99.90;;;;;;5049303;28;20057;-65
2022/03/18 02:20:57;;;;;;;21.63;6.97;;;4.20;99.90;;;;;;5034845;28;20400;-65
2022/03/18 02:23:23;;;;;;;16.13;7.13;;;4.20;99.90;;;;;;5053022;28;20108;-66
2022/03/18 02:25:49;;;;;;;18.92;7.60;;;4.20;99.90;;;;;;5052480;28;20041;-66
2022/03/18 02:28:14;;;;;;;25.00;8.32;;;4.20;99.90;;;;;;5052308;28;20095;-66
2022/03/18 02:30:40;;;;;;;19.05;7.63;;;4.30;99.90;;;;;;5047126;28;20073;-66
2022/03/18 02:33:06;;;;;;;16.60;6.70;;;4.30;99.90;;;;;;5050188;28;20491;-66
2022/03/18 02:35:32;;;;;;;15.15;7.40;;;4.30;99.90;;;;;;5049199;28;20107;-66
2022/03/18 02:37:58;;;;;;;20.10;7.00;;;4.30;99.90;;;;;;5051273;28;20120;-66
2022/03/18 02:40:25;;;;;;;16.52;7.85;;;4.20;99.90;;;;;;5052517;28;20040;-66
2022/03/18 02:42:51;;;;;;;18.65;7.28;;;4.30;99.90;;;;;;5051654;28;20055;-66
2022/03/18 02:45:17;;;;;;;22.00;8.98;;;4.20;99.90;;;;;;5049336;28;20037;-65
2022/03/18 02:47:42;;;;;;;20.75;8.00;;;4.10;99.90;;;;;;5045161;28;20041;-67
2022/03/18 02:50:08;;;;;;;18.48;8.52;;;4.10;99.90;;;;;;5044813;28;20045;-66
2022/03/18 02:52:34;;;;;;;17.15;7.90;;;4.10;99.90;;;;;;5024298;28;20037;-66
2022/03/18 02:55:00;;;;;;;22.58;9.15;;;4.10;99.90;;;;;;5050448;28;20049;-66
2022/03/18 02:57:26;;;;;;;22.25;8.15;;;4.00;99.90;;;;;;5051967;28;20139;-65
2022/03/18 02:59:51;;;;;;;18.30;7.90;;;4.00;99.90;;;;;;5050164;28;20076;-65
2022/03/18 03:02:17;;;;;;;18.85;7.18;;;4.00;99.90;;;;;;5034459;28;20044;-66
2022/03/18 03:10:12;;;;;;;18.17;7.65;;;4.00;99.90;;;;;;5049030;28;20037;-65
2022/03/18 03:12:41;;;;;;;15.98;7.13;;;4.00;99.90;;;;;;5043544;28;20115;-65
2022/03/18 03:15:08;;;;;;;16.35;6.60;;;4.00;99.90;;;;;;5051112;28;20123;-65
2022/03/18 03:17:34;;;;;;;31.42;8.82;;;4.00;99.90;;;;;;5050303;28;20045;-66
2022/03/18 03:19:59;;;;;;;22.77;6.88;;;4.00;99.90;;;;;;5042856;28;20041;-66
2022/03/18 03:22:25;;;;;;;15.70;7.15;;;4.00;99.90;;;;;;5051781;28;20044;-65
2022/03/18 03:24:51;;;;;;;20.50;6.90;;;4.00;99.90;;;;;;5029941;28;20052;-66
2022/03/18 03:27:17;;;;;;;20.95;7.32;;;4.00;99.90;;;;;;5039896;28;20037;-66
2022/03/18 03:29:43;;;;;;;19.35;7.18;;;4.00;99.90;;;;;;5050940;28;20076;-65
2022/03/18 03:32:09;;;;;;;22.83;7.28;;;4.10;99.90;;;;;;5046171;28;20069;-66
2022/03/18 03:34:35;;;;;;;19.17;7.45;;;4.10;99.90;;;;;;5034375;28;20057;-65
2022/03/18 03:37:01;;;;;;;28.60;7.38;;;4.10;99.90;;;;;;5046862;28;20455;-65
2022/03/18 03:39:26;;;;;;;25.90;7.68;;;4.20;99.90;;;;;;5036503;28;20063;-65
2022/03/18 03:41:52;;;;;;;16.40;7.00;;;4.20;99.90;;;;;;5059691;28;20037;-66
2022/03/18 03:44:17;;;;;;;16.88;7.18;;;4.20;99.90;;;;;;5049307;28;20033;-66
2022/03/18 03:46:43;;;;;;;19.60;7.25;;;4.20;99.90;;;;;;5048344;28;20381;-65
2022/03/18 03:49:09;;;;;;;21.45;7.35;;;4.30;99.90;;;;;;5051044;28;20075;-66
2022/03/18 03:51:35;;;;;;;18.60;8.02;;;4.30;99.90;;;;;;5051575;28;20071;-66
2022/03/18 03:54:01;;;;;;;17.85;6.85;;;4.30;99.90;;;;;;5012434;28;20041;-66
2022/03/18 03:56:26;;;;;;;19.88;7.97;;;4.40;99.90;;;;;;5050918;28;20072;-66
2022/03/18 03:58:52;;;;;;;16.38;6.65;;;4.40;99.90;;;;;;5040000;28;20091;-66
2022/03/18 04:01:17;;;;;;;19.15;7.85;;;4.40;99.90;;;;;;5047855;28;20037;-66
2022/03/18 04:03:45;;;;;;;17.67;6.97;;;4.40;99.90;;;;;;5050168;28;20127;-66
2022/03/18 04:06:10;;;;;;;14.40;7.50;;;4.40;99.90;;;;;;5046715;28;20045;-65
2022/03/18 04:08:37;;;;;;;14.82;6.47;;;4.50;99.90;;;;;;5049668;28;20056;-65
2022/03/18 04:11:03;;;;;;;17.27;6.78;;;4.50;99.90;;;;;;5028973;28;20088;-65
2022/03/18 04:13:28;;;;;;;15.65;7.30;;;4.60;99.90;;;;;;5033998;28;20080;-64
2022/03/18 04:15:54;;;;;;;23.08;7.70;;;4.60;99.90;;;;;;5027667;28;20080;-66
2022/03/18 04:18:20;;;;;;;25.08;8.32;;;4.70;99.90;;;;;;5041947;28;20044;-66
2022/03/18 04:20:45;;;;;;;16.60;7.93;;;4.70;99.90;;;;;;5050802;28;20475;-66
2022/03/18 04:23:12;;;;;;;14.32;7.68;;;4.80;99.90;;;;;;5051074;28;20044;-66
2022/03/18 04:25:40;;;;;;;15.15;7.63;;;4.80;99.90;;;;;;5036608;28;20045;-65
2022/03/18 04:28:06;;;;;;;17.48;7.78;;;4.80;99.90;;;;;;5047835;28;20048;-66
2022/03/18 04:30:31;;;;;;;15.23;7.53;;;4.90;99.90;;;;;;5051844;28;20034;-66
2022/03/18 04:32:57;;;;;;;17.77;8.18;;;4.90;99.90;;;;;;5046978;28;20068;-66
2022/03/18 04:35:23;;;;;;;17.63;7.55;;;4.90;99.90;;;;;;5052642;28;20044;-66
2022/03/18 04:37:49;;;;;;;16.02;7.88;;;5.00;99.90;;;;;;5048432;28;20041;-66
2022/03/18 04:40:15;;;;;;;15.88;7.20;;;5.00;99.90;;;;;;5049285;28;20403;-66
2022/03/18 04:42:44;;;;;;;18.52;8.18;;;5.00;99.90;;;;;;5046524;28;20037;-66
2022/03/18 04:45:10;;;;;;;19.23;7.43;;;5.00;99.90;;;;;;5054056;28;20040;-66
2022/03/18 04:47:36;;;;;;;16.42;8.07;;;5.10;99.90;;;;;;5050269;28;20480;-66
2022/03/18 04:50:03;;;;;;;19.70;8.07;;;5.10;99.90;;;;;;5027179;28;20048;-67
2022/03/18 04:52:28;;;;;;;22.92;8.15;;;5.10;99.90;;;;;;5039053;28;20124;-65
2022/03/18 04:54:54;;;;;;;21.23;8.90;;;5.10;99.90;;;;;;5022255;28;20124;-65
2022/03/18 04:57:20;;;;;;;18.92;7.78;;;5.10;99.90;;;;;;5046919;28;20037;-65
2022/03/18 04:59:52;;;;;;;18.50;7.82;;;5.00;99.90;;;;;;5034468;28;20048;-66
2022/03/18 05:02:18;;;;;;;17.83;7.72;;;5.00;99.90;;;;;;5052537;28;20052;-66
2022/03/18 05:04:44;;;;;;;19.70;8.40;;;5.00;99.90;;;;;;5050927;28;20091;-66
2022/03/18 05:07:11;;;;;;;24.92;8.40;;;4.90;99.90;;;;;;5051730;28;20037;-66
2022/03/18 05:09:39;;;;;;;17.88;8.40;;;4.90;99.90;;;;;;5051507;28;20095;-66
2022/03/18 05:12:07;;;;;;;17.95;9.65;;;4.90;99.90;;;;;;5052142;28;20037;-66
2022/03/18 05:14:34;;;;;;;16.75;8.73;;;4.80;99.90;;;;;;5053475;28;20055;-66
2022/03/18 05:16:59;;;;;;;21.08;8.93;;;4.80;99.90;;;;;;5054154;28;20056;-65
2022/03/18 05:19:25;;;;;;;17.45;8.93;;;4.80;99.90;;;;;;5045068;28;20482;-65
2022/03/18 05:21:50;;;;;;;18.38;9.18;;;4.80;99.90;;;;;;5049508;28;20103;-66
2022/03/18 05:24:16;;;;;;;18.00;8.32;;;4.80;99.90;;;;;;5046652;28;20037;-66
2022/03/18 05:26:42;;;;;;;21.02;10.35;;;4.70;99.90;;;;;;5053739;28;20482;-65
2022/03/18 05:29:07;;;;;;;21.27;9.70;;;4.70;99.90;;;;;;5022818;28;20060;-66
2022/03/18 05:31:35;;;;;;;21.27;10.60;;;4.70;99.90;;;;;;5049540;28;20053;-65
2022/03/18 05:34:00;;;;;;;17.60;10.17;;;4.60;99.90;;;;;;5048228;28;20071;-65
2022/03/18 05:36:26;;;;;;;20.42;9.63;;;4.60;99.90;;;;;;5050844;28;20064;-65
2022/03/18 05:38:52;;;;;;;25.05;10.70;;;4.50;99.90;;;;;;5049450;28;20065;-65
2022/03/18 05:41:17;;;;;;;17.20;9.98;;;4.50;99.90;;;;;;5047604;28;20090;-67
2022/03/18 05:43:43;;;;;;;29.90;12.40;;;4.40;99.90;;;;;;5052379;28;20045;-64
2022/03/18 05:46:11;;;;;;;27.75;10.90;;;4.40;99.90;;;;;;5047845;28;20052;-65
2022/03/18 05:48:37;;;;;;;18.80;10.53;;;4.60;99.90;;;;;;5051209;28;20513;-65
2022/03/18 05:51:03;;;;;;;23.88;11.57;;;4.30;99.90;;;;;;5052202;28;20041;-65
2022/03/18 05:53:29;;;;;;;20.65;11.27;;;4.30;99.90;;;;;;5049439;28;20053;-65
2022/03/18 05:58:42;;;;;;;20.23;11.95;;;4.40;99.90;;;;;;5046425;28;20124;-66
2022/03/18 06:01:08;;;;;;;21.48;12.05;;;4.40;99.90;;;;;;5052532;28;20399;-64
2022/03/18 06:03:33;;;;;;;24.45;12.43;;;4.40;99.90;;;;;;5046235;28;20045;-66
2022/03/18 06:05:59;;;;;;;23.33;11.70;;;4.40;99.90;;;;;;5047184;28;20419;-65
2022/03/18 06:13:54;;;;;;;21.63;11.00;;;4.40;99.90;;;;;;5050514;28;20045;-65
2022/03/18 06:16:19;;;;;;;25.40;12.27;;;4.40;99.90;;;;;;5032069;28;20048;-65
2022/03/18 06:18:45;;;;;;;24.75;11.50;;;4.40;99.90;;;;;;5031184;28;20191;-66
2022/03/18 06:21:12;;;;;;;24.60;12.10;;;4.40;99.90;;;;;;5050678;28;20080;-67
2022/03/18 06:23:38;;;;;;;22.17;11.68;;;4.40;99.90;;;;;;5051655;28;20045;-66
2022/03/18 06:26:03;;;;;;;20.30;12.02;;;4.40;99.90;;;;;;5053006;28;20044;-66
2022/03/18 06:28:31;;;;;;;29.52;12.38;;;4.40;99.90;;;;;;5050300;28;20135;-66
2022/03/18 06:30:56;;;;;;;21.17;12.65;;;4.40;99.90;;;;;;5049530;28;20503;-65
2022/03/18 06:33:22;;;;;;;24.17;12.02;;;4.40;99.90;;;;;;5015730;28;20068;-66
2022/03/18 06:35:48;;;;;;;25.55;11.98;;;4.50;99.90;;;;;;5051930;28;20047;-65
2022/03/18 06:38:13;;;;;;;19.77;12.73;;;4.50;99.90;;;;;;5052105;28;20033;-65
2022/03/18 06:40:39;;;;;;;29.65;13.20;;;4.50;99.90;;;;;;5014807;28;20036;-66
2022/03/18 06:43:04;;;;;;;19.80;12.43;;;4.60;99.90;;;;;;5035582;28;20075;-65
2022/03/18 06:45:30;;;;;;;29.17;14.80;;;4.60;99.90;;;;;;5034242;28;20045;-65
2022/03/18 06:47:55;;;;;;;27.20;13.10;;;4.70;99.90;;;;;;5036775;28;20045;-65
2022/03/18 06:50:22;;;;;;;31.60;14.13;;;4.80;99.90;;;;;;5029375;28;20041;-65
2022/03/18 06:52:48;;;;;;;22.55;13.35;;;4.90;99.90;;;;;;5048721;28;20044;-65
2022/03/18 06:55:14;;;;;;;24.42;13.10;;;5.10;99.90;;;;;;5018462;28;20494;-65
2022/03/18 06:57:39;;;;;;;24.15;13.07;;;5.30;99.90;;;;;;5062912;28;20045;-65
2022/03/18 07:00:06;;;;;;;23.73;11.63;;;5.60;99.90;;;;;;5058534;28;20040;-65
2022/03/18 07:02:31;;;;;;;28.38;11.95;;;6.00;99.90;;;;;;5041803;28;20523;-66
2022/03/18 07:04:57;;;;;;;21.33;11.18;;;6.40;99.90;;;;;;5051809;28;20037;-64
2022/03/18 07:07:22;;;;;;;30.38;12.05;;;6.60;99.90;;;;;;5052447;28;20041;-65
2022/03/18 07:09:48;;;;;;;19.63;11.32;;;6.60;99.90;;;;;;5033985;28;20039;-65
2022/03/18 07:12:14;;;;;;;24.15;11.95;;;6.60;99.90;;;;;;5052786;28;20140;-66
2022/03/18 07:14:39;;;;;;;24.40;11.60;;;6.70;99.90;;;;;;5028339;28;20053;-65
2022/03/18 07:19:49;;;;;;;21.05;11.35;;;6.80;99.90;;;;;;5037393;28;20484;-64
2022/03/18 07:22:15;;;;;;;28.70;11.40;;;6.90;99.90;;;;;;5050839;28;20103;-66
2022/03/18 07:24:40;;;;;;;26.33;11.50;;;7.00;99.90;;;;;;5052226;28;20056;-65
2022/03/18 07:27:06;;;;;;;27.33;11.70;;;7.10;99.90;;;;;;5049069;28;20118;-66
2022/03/18 07:29:31;;;;;;;27.83;10.57;;;7.20;99.90;;;;;;5033786;28;20045;-66
2022/03/18 07:31:57;;;;;;;22.67;11.45;;;7.30;99.90;;;;;;5033494;28;20045;-66
2022/03/18 07:34:23;;;;;;;24.23;11.02;;;7.40;99.90;;;;;;5051378;28;20072;-66
2022/03/18 07:36:49;;;;;;;25.77;11.05;;;7.50;99.90;;;;;;5031460;28;20045;-65
2022/03/18 07:39:15;;;;;;;25.38;11.73;;;7.60;99.90;;;;;;5039832;28;20087;-65
2022/03/18 07:41:40;;;;;;;22.52;11.60;;;7.60;99.90;;;;;;5028073;28;20369;-65
2022/03/18 07:44:06;;;;;;;21.02;10.65;;;7.80;99.90;;;;;;5052233;28;20045;-65
2022/03/18 07:46:32;;;;;;;36.33;11.45;;;7.90;99.90;;;;;;5051938;28;20099;-66
2022/03/18 07:48:57;;;;;;;21.10;10.93;;;8.00;99.90;;;;;;5052185;28;20029;-66
2022/03/18 07:51:23;;;;;;;19.30;9.90;;;8.10;99.90;;;;;;5051028;28;20152;-65
2022/03/18 07:53:49;;;;;;;25.80;10.95;;;8.20;99.90;;;;;;5051518;28;20120;-65
2022/03/18 07:56:14;;;;;;;27.50;10.57;;;8.40;99.90;;;;;;5051517;28;20037;-64
2022/03/18 07:58:40;;;;;;;35.10;10.85;;;8.50;99.90;;;;;;5035135;28;20125;-65
2022/03/18 08:01:05;;;;;;;31.25;11.68;;;8.60;99.90;;;;;;5042919;28;20556;-65
2022/03/18 08:03:31;;;;;;;27.27;10.75;;;8.80;99.90;;;;;;5056327;28;20045;-65
2022/03/18 08:05:57;;;;;;;24.80;10.32;;;8.90;99.90;;;;;;5056083;28;20033;-66
2022/03/18 08:08:23;;;;;;;25.13;10.23;;;9.10;99.90;;;;;;5050980;28;20039;-65
2022/03/18 08:10:49;;;;;;;28.23;9.48;;;9.10;99.90;;;;;;5038223;28;20053;-66
2022/03/18 08:13:15;;;;;;;20.77;9.02;;;9.30;99.90;;;;;;5052555;28;20049;-65
2022/03/18 08:15:42;;;;;;;22.17;9.23;;;9.40;99.90;;;;;;5055165;28;20044;-65
2022/03/18 08:18:09;;;;;;;23.77;9.52;;;9.40;99.90;;;;;;5054016;28;20474;-65
2022/03/18 08:20:40;;;;;;;22.65;8.52;;;9.50;99.90;;;;;;5054373;28;20056;-65
2022/03/18 08:23:07;;;;;;;21.40;8.35;;;9.60;99.90;;;;;;5053826;28;20511;-66
2022/03/18 08:25:33;;;;;;;20.23;9.10;;;9.80;99.90;;;;;;5035196;28;20045;-65
2022/03/18 08:27:58;;;;;;;29.25;9.73;;;9.80;99.90;;;;;;5052331;28;20500;-66
2022/03/18 08:30:24;;;;;;;27.27;9.35;;;9.90;99.90;;;;;;5026257;28;20503;-66
2022/03/18 08:32:50;;;;;;;23.00;8.43;;;10.00;99.90;;;;;;5032782;28;20049;-66
2022/03/18 08:35:15;;;;;;;29.45;10.48;;;10.00;99.90;;;;;;5049532;28;20037;-65
2022/03/18 08:37:56;;;;;;;21.63;9.52;;;10.10;99.90;;;;;;5052312;28;20047;-64
2022/03/18 08:40:26;;;;;;;30.17;9.43;;;10.20;99.90;;;;;;5046724;28;20116;-65
2022/03/18 08:42:53;;;;;;;19.77;8.98;;;10.30;99.90;;;;;;5051503;28;20084;-66
2022/03/18 08:45:19;;;;;;;25.00;9.50;;;10.40;99.90;;;;;;5049629;28;20052;-66
2022/03/18 08:47:45;;;;;;;27.40;9.20;;;10.40;99.90;;;;;;5050428;28;20454;-67
2022/03/18 08:50:12;;;;;;;28.63;9.50;;;10.50;99.90;;;;;;5049070;28;20098;-66
2022/03/18 08:52:38;;;;;;;28.23;9.85;;;10.60;99.90;;;;;;5049010;28;20136;-66
2022/03/18 08:55:05;;;;;;;22.65;9.40;;;10.70;99.90;;;;;;5049736;28;20056;-67
2022/03/18 08:57:33;;;;;;;32.78;9.65;;;10.80;99.90;;;;;;5050062;28;20049;-67
2022/03/18 08:59:59;;;;;;;30.85;10.20;;;10.80;99.90;;;;;;5030679;28;20079;-66
2022/03/18 09:02:25;;;;;;;24.25;8.60;;;11.00;99.90;;;;;;5001204;28;20049;-66
2022/03/18 09:04:52;;;;;;;26.02;8.80;;;11.20;99.90;;;;;;5031277;28;20495;-66
2022/03/18 09:07:18;;;;;;;23.17;9.15;;;11.20;99.90;;;;;;5049769;28;20154;-66
2022/03/18 09:09:44;;;;;;;26.15;9.05;;;11.30;99.90;;;;;;5051601;28;20085;-65
2022/03/18 09:12:10;;;;;;;25.70;9.60;;;11.60;99.90;;;;;;5051098;28;20056;-66
2022/03/18 09:14:36;;;;;;;17.02;8.35;;;11.50;99.90;;;;;;5051684;28;20114;-67
2022/03/18 09:17:01;;;;;;;20.60;8.13;;;11.50;99.90;;;;;;5046583;28;20087;-67
2022/03/18 09:19:27;;;;;;;24.95;8.90;;;11.60;99.90;;;;;;5053505;28;20082;-66
2022/03/18 09:21:54;;;;;;;23.63;8.32;;;11.80;99.90;;;;;;5051939;28;20152;-66
2022/03/18 09:24:19;;;;;;;26.17;9.65;;;11.90;99.90;;;;;;5051382;28;20560;-66
2022/03/18 09:26:45;;;;;;;27.42;9.18;;;12.10;99.90;;;;;;5028779;28;20052;-68
2022/03/18 09:29:12;;;;;;;23.35;8.63;;;12.30;99.90;;;;;;5049743;28;20045;-67
2022/03/18 09:31:38;;;;;;;25.92;7.93;;;12.40;99.90;;;;;;5051287;28;20088;-66
2022/03/18 09:34:03;;;;;;;23.88;7.90;;;12.60;99.90;;;;;;5050647;28;20037;-66
2022/03/18 09:36:31;;;;;;;26.90;9.07;;;12.70;99.90;;;;;;5045272;28;20069;-66
2022/03/18 09:38:57;;;;;;;29.15;8.52;;;12.90;99.90;;;;;;5021818;28;20526;-65
2022/03/18 09:41:23;;;;;;;22.48;8.40;;;13.00;99.90;;;;;;5053690;28;20053;-67
2022/03/18 09:43:48;;;;;;;25.73;8.45;;;12.90;99.90;;;;;;5051111;28;20045;-67
2022/03/18 09:46:16;;;;;;;21.65;7.78;;;12.90;99.90;;;;;;5017017;28;20041;-66
2022/03/18 09:48:43;;;;;;;18.25;7.30;;;12.90;99.90;;;;;;5017638;28;20114;-66
2022/03/18 09:51:09;;;;;;;23.38;8.10;;;13.10;99.90;;;;;;5050939;28;20048;-67
2022/03/18 09:53:35;;;;;;;23.30;7.68;;;13.40;99.90;;;;;;5051876;28;20088;-66
2022/03/18 09:56:03;;;;;;;21.48;7.43;;;13.50;99.90;;;;;;5057934;28;20049;-66
2022/03/18 09:58:29;;;;;;;23.25;7.03;;;13.60;99.90;;;;;;5061270;28;20098;-66
2022/03/18 10:00:58;;;;;;;20.50;7.50;;;13.80;99.90;;;;;;5056411;28;20044;-67
2022/03/18 10:03:35;;;;;;;21.63;6.70;;;14.10;99.90;;;;;;5054726;28;20044;-66
2022/03/18 10:06:04;;;;;;;22.50;6.88;;;14.20;99.90;;;;;;5056478;28;20135;-66
2022/03/18 10:08:35;;;;;;;16.25;6.45;;;14.40;99.90;;;;;;5061869;28;20067;-66
2022/03/18 10:11:20;;;;;;;20.17;6.88;;;14.70;99.90;;;;;;5048605;28;20045;-67
2022/03/18 10:13:56;;;;;;;19.77;6.00;;;14.70;99.90;;;;;;5054681;28;20057;-66
2022/03/18 10:16:34;;;;;;;17.23;5.85;;;15.00;99.90;;;;;;5028748;28;20485;-67
2022/03/18 10:19:01;;;;;;;20.70;6.38;;;15.00;99.90;;;;;;5039810;28;20052;-66
2022/03/18 10:21:28;;;;;;;19.10;6.10;;;15.20;99.90;;;;;;5036451;28;20075;-67
2022/03/18 10:24:27;;;;;;;22.52;6.43;;;15.30;99.90;;;;;;5045227;28;20041;-66
2022/03/18 10:27:12;;;;;;;16.08;5.97;;;15.30;99.90;;;;;;4988202;28;20132;-68
2022/03/18 10:29:46;;;;;;;21.27;6.22;;;15.60;99.90;;;;;;5033058;28;20065;-67
2022/03/18 10:32:13;;;;;;;21.55;6.45;;;15.50;99.90;;;;;;5020502;28;20398;-66
2022/03/18 10:37:38;;;;;;;14.68;5.65;;;15.90;99.90;;;;;;5040815;28;20092;-66
2022/03/18 10:40:04;;;;;;;19.77;6.40;;;16.10;99.90;;;;;;5048928;28;20040;-66
2022/03/18 10:42:30;;;;;;;24.35;6.78;;;16.40;99.90;;;;;;5036458;28;20076;-67
2022/03/18 10:45:00;;;;;;;20.42;6.65;;;16.40;99.90;;;;;;5047436;28;20269;-67
2022/03/18 10:47:27;;;;;;;17.45;5.50;;;16.80;99.90;;;;;;5046496;28;20044;-66
2022/03/18 10:50:11;;;;;;;27.73;6.57;;;16.90;99.90;;;;;;5041226;28;20075;-66
2022/03/18 10:52:49;;;;;;;21.40;6.10;;;16.90;98.90;;;;;;5038772;28;20315;-65
2022/03/18 10:55:20;;;;;;;19.45;6.80;;;16.90;99.80;;;;;;5049252;28;20040;-67
2022/03/18 10:58:18;;;;;;;17.88;5.97;;;17.20;99.90;;;;;;5047966;28;20041;-67
2022/03/18 11:00:50;;;;;;;16.00;5.35;;;17.40;99.40;;;;;;5049337;28;20116;-67
2022/03/18 11:03:16;;;;;;;17.35;5.30;;;17.70;98.00;;;;;;5049448;28;20045;-66
2022/03/18 11:05:44;;;;;;;20.13;5.57;;;17.40;98.60;;;;;;5054680;28;20037;-67
2022/03/18 11:08:11;;;;;;;14.65;5.50;;;17.50;98.30;;;;;;5050046;28;20120;-67
2022/03/18 11:13:28;;;;;;;21.95;5.82;;;17.80;97.70;;;;;;5039997;28;20053;-66
2022/03/18 11:15:56;;;;;;;17.13;6.22;;;17.80;97.80;;;;;;5043112;28;20541;-67
2022/03/18 11:18:22;;;;;;;22.10;6.30;;;18.00;97.80;;;;;;5047645;28;20091;-67
2022/03/18 11:20:50;;;;;;;15.93;5.30;;;18.30;97.40;;;;;;5050621;28;20059;-67
2022/03/18 11:23:24;;;;;;;20.55;5.45;;;18.40;95.90;;;;;;5033238;28;20204;-68
2022/03/18 11:25:54;;;;;;;14.68;5.45;;;18.70;94.30;;;;;;5040051;28;20144;-67
2022/03/18 11:28:21;;;;;;;21.15;5.07;;;18.60;94.50;;;;;;5047471;28;20073;-67
2022/03/18 11:30:48;;;;;;;21.90;6.00;;;18.40;94.60;;;;;;5037132;28;20037;-67
2022/03/18 11:33:14;;;;;;;16.40;5.78;;;18.40;94.00;;;;;;5032730;28;20833;-67
2022/03/18 11:35:49;;;;;;;17.52;6.38;;;18.20;94.50;;;;;;5042384;28;20037;-67
2022/03/18 11:38:15;;;;;;;19.58;5.78;;;18.50;93.70;;;;;;5046606;28;20048;-67
2022/03/18 11:40:54;;;;;;;17.60;5.83;;;18.70;94.30;;;;;;5043202;28;20029;-67
2022/03/18 11:43:32;;;;;;;15.68;5.05;;;19.00;93.00;;;;;;5042435;28;20118;-67
2022/03/18 11:46:12;;;;;;;;;;;19.20;91.10;;;;;;5047777;28;20076;-67
2022/03/18 11:48:42;;;;;;;15.18;4.72;;;18.90;90.10;;;;;;5046506;28;19995;-67
2022/03/18 11:51:31;;;;;;;17.73;5.40;;;19.30;88.80;;;;;;5048430;28;20130;-67
2022/03/18 11:53:59;;;;;;;19.83;5.28;;;19.20;89.00;;;;;;5036600;28;20098;-66
2022/03/18 11:56:47;;;;;;;19.00;4.88;;;19.20;87.80;;;;;;5047963;28;20049;-67
2022/03/18 11:59:25;;;;;;;14.85;4.57;;;18.20;89.70;;;;;;5046246;28;20405;-67
2022/03/18 12:01:54;;;;;;;14.43;4.68;;;18.20;90.00;;;;;;5042882;28;20098;-67
2022/03/18 12:04:36;;;;;;;18.65;5.93;;;18.30;91.20;;;;;;5046725;28;20522;-67
2022/03/18 12:07:30;;;;;;;19.20;5.18;;;18.60;91.30;;;;;;5050323;28;20460;-68
2022/03/18 12:10:00;;;;;;;18.73;5.53;;;18.80;90.40;;;;;;5036242;28;20144;-65
2022/03/18 12:12:42;;;;;;;18.10;5.72;;;19.30;90.60;;;;;;5054611;28;20131;-66
2022/03/18 12:15:15;;;;;;;15.20;5.35;;;19.50;90.20;;;;;;5045371;28;20144;-68
2022/03/18 12:17:56;;;;;;;18.70;4.70;;;19.50;86.90;;;;;;5047678;28;20155;-68
2022/03/18 12:20:30;;;;;;;17.35;5.13;;;20.10;84.70;;;;;;5049414;28;20087;-68
2022/03/18 12:23:01;;;;;;;21.75;5.25;;;19.70;85.00;;;;;;5047625;28;20103;-67
2022/03/18 12:25:27;;;;;;;20.40;5.53;;;19.20;86.40;;;;;;5029905;28;20072;-68
2022/03/18 12:27:55;;;;;;;16.55;5.30;;;19.10;85.90;;;;;;5049074;28;20503;-67
2022/03/18 12:30:24;;;;;;;16.65;4.88;;;18.10;87.60;;;;;;5048284;28;20066;-67
2022/03/18 12:32:52;;;;;;;18.50;5.18;;;18.20;89.70;;;;;;5050233;28;20040;-68
2022/03/18 12:35:24;;;;;;;19.02;5.38;;;18.40;89.00;;;;;;5013900;28;20056;-66
2022/03/18 12:38:05;;;;;;;18.63;4.68;;;18.70;87.70;;;;;;5040987;28;20533;-68
2022/03/18 12:40:31;;;;;;;19.92;5.30;;;18.60;87.10;;;;;;5048091;28;20049;-67
2022/03/18 12:42:58;;;;;;;20.58;4.80;;;18.20;86.80;;;;;;5011985;28;20090;-66
2022/03/18 12:45:34;;;;;;;18.65;5.07;;;17.40;90.50;;;;;;5033645;28;20036;-66
2022/03/18 12:48:07;;;;;;;24.00;5.53;;;17.30;91.00;;;;;;5055014;28;20060;-67
2022/03/18 12:50:33;;;;;;;23.92;5.20;;;17.30;91.60;;;;;;5039020;28;20111;-67
2022/03/18 12:53:00;;;;;;;17.73;5.20;;;17.40;91.80;;;;;;5050481;28;20040;-65
2022/03/18 12:55:26;;;;;;;18.27;6.10;;;17.40;91.80;;;;;;5051329;28;20049;-66
2022/03/18 12:57:53;;;;;;;25.60;5.78;;;17.50;91.70;;;;;;5063653;28;20068;-67
2022/03/18 13:00:21;;;;;;;22.75;5.05;;;17.80;90.80;;;;;;5054787;28;20132;-66
2022/03/18 13:02:51;;;;;;;18.67;5.00;;;17.70;90.90;;;;;;5027259;28;20041;-65
2022/03/18 13:05:19;;;;;;;23.23;5.60;;;17.80;91.70;;;;;;5020402;28;20072;-66
2022/03/18 13:07:46;;;;;;;20.65;5.07;;;17.80;91.10;;;;;;5052153;28;20053;-65
2022/03/18 13:10:13;;;;;;;21.80;4.72;;;18.20;89.90;;;;;;5032124;28;20511;-66
2022/03/18 13:12:39;;;;;;;22.60;5.18;;;17.30;90.40;;;;;;5051392;28;20060;-67